sensor_id;sensor_type;location;lat;lon;timestamp;P1;durP1;ratioP1;P2;durP2;ratioP2
10701;SDS011;5402;50.004;8.246;2022-12-18T00:02:25;23.17;;;11.00;;
10701;SDS011;5402;50.004;8.246;2022-12-18T00:04:52;24.27;;;10.60;;
10701;SDS011;5402;50.004;8.246;2022-12-18T00:07:19;24.90;;;10.83;;
10701;SDS011;5402;50.004;8.246;2022-12-18T00:09:46;28.17;;;11.27;;
10701;SDS011;5402;50.004;8.246;2022-12-18T00:12:13;24.03;;;10.83;;
10701;SDS011;5402;50.004;8.246;2022-12-18T00:14:39;24.07;;;10.37;;
10701;SDS011;5402;50.004;8.246;2022-12-18T00:17:06;25.93;;;11.07;;
10701;SDS011;5402;50.004;8.246;2022-12-18T00:19:35;29.13;;;11.23;;
10701;SDS011;5402;50.004;8.246;2022-12-18T00:22:02;23.90;;;10.53;;
10701;SDS011;5402;50.004;8.246;2022-12-18T00:24:29;24.53;;;10.80;;
10701;SDS011;5402;50.004;8.246;2022-12-18T00:26:55;24.20;;;10.13;;
10701;SDS011;5402;50.004;8.246;2022-12-18T00:29:23;22.73;;;10.57;;
10701;SDS011;5402;50.004;8.246;2022-12-18T00:31:50;30.17;;;11.87;;
10701;SDS011;5402;50.004;8.246;2022-12-18T00:34:16;25.07;;;10.40;;
10701;SDS011;5402;50.004;8.246;2022-12-18T00:36:46;26.77;;;10.63;;
10701;SDS011;5402;50.004;8.246;2022-12-18T00:39:14;27.30;;;10.77;;
10701;SDS011;5402;50.004;8.246;2022-12-18T00:41:41;27.60;;;10.43;;
10701;SDS011;5402;50.004;8.246;2022-12-18T00:44:25;23.97;;;10.60;;
10701;SDS011;5402;50.004;8.246;2022-12-18T00:46:52;24.73;;;10.53;;
10701;SDS011;5402;50.004;8.246;2022-12-18T00:49:22;25.50;;;11.00;;
10701;SDS011;5402;50.004;8.246;2022-12-18T00:51:50;24.87;;;9.97;;
10701;SDS011;5402;50.004;8.246;2022-12-18T00:54:17;25.40;;;10.63;;
10701;SDS011;5402;50.004;8.246;2022-12-18T00:56:44;28.23;;;11.37;;
10701;SDS011;5402;50.004;8.246;2022-12-18T00:59:11;23.87;;;10.60;;
10701;SDS011;5402;50.004;8.246;2022-12-18T01:01:38;22.17;;;10.00;;
10701;SDS011;5402;50.004;8.246;2022-12-18T01:04:05;30.43;;;10.67;;
10701;SDS011;5402;50.004;8.246;2022-12-18T01:06:34;28.23;;;10.87;;
10701;SDS011;5402;50.004;8.246;2022-12-18T01:09:02;25.73;;;11.80;;
10701;SDS011;5402;50.004;8.246;2022-12-18T01:11:29;23.73;;;10.87;;
10701;SDS011;5402;50.004;8.246;2022-12-18T01:14:05;26.67;;;11.27;;
10701;SDS011;5402;50.004;8.246;2022-12-18T01:16:33;28.93;;;11.07;;
10701;SDS011;5402;50.004;8.246;2022-12-18T01:19:00;25.00;;;11.13;;
10701;SDS011;5402;50.004;8.246;2022-12-18T01:21:29;23.43;;;10.23;;
10701;SDS011;5402;50.004;8.246;2022-12-18T01:23:56;31.13;;;11.77;;
10701;SDS011;5402;50.004;8.246;2022-12-18T01:26:24;29.70;;;11.57;;
10701;SDS011;5402;50.004;8.246;2022-12-18T01:28:54;25.10;;;11.00;;
10701;SDS011;5402;50.004;8.246;2022-12-18T01:31:22;22.37;;;10.27;;
10701;SDS011;5402;50.004;8.246;2022-12-18T01:33:52;27.77;;;11.20;;
10701;SDS011;5402;50.004;8.246;2022-12-18T01:36:22;29.90;;;11.97;;
10701;SDS011;5402;50.004;8.246;2022-12-18T01:38:51;29.57;;;11.87;;
10701;SDS011;5402;50.004;8.246;2022-12-18T01:41:19;29.30;;;11.53;;
10701;SDS011;5402;50.004;8.246;2022-12-18T01:43:50;21.57;;;10.03;;
10701;SDS011;5402;50.004;8.246;2022-12-18T01:46:20;27.13;;;10.10;;
10701;SDS011;5402;50.004;8.246;2022-12-18T01:48:48;32.80;;;12.37;;
10701;SDS011;5402;50.004;8.246;2022-12-18T01:51:19;26.23;;;11.23;;
10701;SDS011;5402;50.004;8.246;2022-12-18T01:53:47;24.67;;;11.03;;
10701;SDS011;5402;50.004;8.246;2022-12-18T01:56:21;21.28;;;10.11;;
10701;SDS011;5402;50.004;8.246;2022-12-18T01:58:52;22.03;;;10.43;;
10701;SDS011;5402;50.004;8.246;2022-12-18T02:01:23;26.30;;;9.83;;
10701;SDS011;5402;50.004;8.246;2022-12-18T02:03:51;24.60;;;9.67;;
10701;SDS011;5402;50.004;8.246;2022-12-18T02:06:23;26.43;;;11.23;;
10701;SDS011;5402;50.004;8.246;2022-12-18T02:08:58;27.17;;;10.57;;
10701;SDS011;5402;50.004;8.246;2022-12-18T02:11:39;24.63;;;9.57;;
10701;SDS011;5402;50.004;8.246;2022-12-18T02:14:18;22.73;;;9.80;;
10701;SDS011;5402;50.004;8.246;2022-12-18T02:16:52;19.60;;;8.00;;
10701;SDS011;5402;50.004;8.246;2022-12-18T02:19:38;27.57;;;10.10;;
10701;SDS011;5402;50.004;8.246;2022-12-18T02:22:21;21.67;;;9.83;;
10701;SDS011;5402;50.004;8.246;2022-12-18T02:24:59;26.33;;;10.40;;
10701;SDS011;5402;50.004;8.246;2022-12-18T02:27:40;24.90;;;11.17;;
10701;SDS011;5402;50.004;8.246;2022-12-18T02:30:11;23.83;;;10.87;;
10701;SDS011;5402;50.004;8.246;2022-12-18T02:32:43;27.73;;;10.53;;
10701;SDS011;5402;50.004;8.246;2022-12-18T02:35:15;23.90;;;10.07;;
10701;SDS011;5402;50.004;8.246;2022-12-18T02:37:44;29.27;;;11.43;;
10701;SDS011;5402;50.004;8.246;2022-12-18T02:40:17;19.13;;;9.67;;
10701;SDS011;5402;50.004;8.246;2022-12-18T02:42:48;25.63;;;11.00;;
10701;SDS011;5402;50.004;8.246;2022-12-18T02:45:15;26.87;;;10.60;;
10701;SDS011;5402;50.004;8.246;2022-12-18T02:47:42;20.97;;;10.47;;
10701;SDS011;5402;50.004;8.246;2022-12-18T02:50:14;24.27;;;10.70;;
10701;SDS011;5402;50.004;8.246;2022-12-18T02:52:55;27.00;;;10.43;;
10701;SDS011;5402;50.004;8.246;2022-12-18T02:55:44;25.73;;;10.70;;
10701;SDS011;5402;50.004;8.246;2022-12-18T02:58:33;24.83;;;10.70;;
10701;SDS011;5402;50.004;8.246;2022-12-18T03:01:10;25.90;;;10.90;;
10701;SDS011;5402;50.004;8.246;2022-12-18T03:03:42;27.47;;;9.93;;
10701;SDS011;5402;50.004;8.246;2022-12-18T03:06:15;27.20;;;12.20;;
10701;SDS011;5402;50.004;8.246;2022-12-18T03:08:52;24.03;;;11.13;;
10701;SDS011;5402;50.004;8.246;2022-12-18T03:11:32;23.33;;;10.90;;
10701;SDS011;5402;50.004;8.246;2022-12-18T03:14:21;24.47;;;9.23;;
10701;SDS011;5402;50.004;8.246;2022-12-18T03:16:50;24.07;;;10.07;;
10701;SDS011;5402;50.004;8.246;2022-12-18T03:19:24;28.83;;;9.97;;
10701;SDS011;5402;50.004;8.246;2022-12-18T03:21:54;21.30;;;9.73;;
10701;SDS011;5402;50.004;8.246;2022-12-18T03:24:22;27.73;;;10.40;;
10701;SDS011;5402;50.004;8.246;2022-12-18T03:27:00;22.07;;;9.93;;
10701;SDS011;5402;50.004;8.246;2022-12-18T03:29:32;28.87;;;11.40;;
10701;SDS011;5402;50.004;8.246;2022-12-18T03:32:03;23.83;;;9.40;;
10701;SDS011;5402;50.004;8.246;2022-12-18T03:34:34;28.43;;;10.67;;
10701;SDS011;5402;50.004;8.246;2022-12-18T03:37:03;28.10;;;10.97;;
10701;SDS011;5402;50.004;8.246;2022-12-18T03:39:31;26.37;;;10.87;;
10701;SDS011;5402;50.004;8.246;2022-12-18T03:42:00;23.80;;;10.77;;
10701;SDS011;5402;50.004;8.246;2022-12-18T03:44:35;25.13;;;10.70;;
10701;SDS011;5402;50.004;8.246;2022-12-18T03:47:07;24.93;;;10.90;;
10701;SDS011;5402;50.004;8.246;2022-12-18T03:49:41;25.07;;;10.20;;
10701;SDS011;5402;50.004;8.246;2022-12-18T03:52:15;27.10;;;10.33;;
10701;SDS011;5402;50.004;8.246;2022-12-18T03:54:46;26.97;;;10.27;;
10701;SDS011;5402;50.004;8.246;2022-12-18T03:57:14;30.30;;;11.53;;
10701;SDS011;5402;50.004;8.246;2022-12-18T03:59:46;33.90;;;11.47;;
10701;SDS011;5402;50.004;8.246;2022-12-18T04:02:18;26.40;;;10.57;;
10701;SDS011;5402;50.004;8.246;2022-12-18T04:04:51;26.10;;;9.70;;
10701;SDS011;5402;50.004;8.246;2022-12-18T04:07:22;24.93;;;9.70;;
10701;SDS011;5402;50.004;8.246;2022-12-18T04:09:50;21.00;;;8.73;;
10701;SDS011;5402;50.004;8.246;2022-12-18T04:12:20;21.80;;;10.47;;
10701;SDS011;5402;50.004;8.246;2022-12-18T04:14:51;30.87;;;11.27;;
10701;SDS011;5402;50.004;8.246;2022-12-18T04:17:18;29.30;;;9.67;;
10701;SDS011;5402;50.004;8.246;2022-12-18T04:19:45;24.43;;;9.83;;
10701;SDS011;5402;50.004;8.246;2022-12-18T04:22:11;21.83;;;10.50;;
10701;SDS011;5402;50.004;8.246;2022-12-18T04:24:38;28.20;;;9.93;;
10701;SDS011;5402;50.004;8.246;2022-12-18T04:27:05;28.00;;;10.77;;
10701;SDS011;5402;50.004;8.246;2022-12-18T04:29:32;31.37;;;10.83;;
10701;SDS011;5402;50.004;8.246;2022-12-18T04:32:00;26.33;;;10.20;;
10701;SDS011;5402;50.004;8.246;2022-12-18T04:34:29;24.07;;;10.90;;
10701;SDS011;5402;50.004;8.246;2022-12-18T04:36:56;22.23;;;10.03;;
10701;SDS011;5402;50.004;8.246;2022-12-18T04:39:24;24.90;;;10.53;;
10701;SDS011;5402;50.004;8.246;2022-12-18T04:41:51;25.07;;;10.37;;
10701;SDS011;5402;50.004;8.246;2022-12-18T04:44:18;23.17;;;9.07;;
10701;SDS011;5402;50.004;8.246;2022-12-18T04:46:45;27.70;;;11.47;;
10701;SDS011;5402;50.004;8.246;2022-12-18T04:49:13;24.00;;;10.27;;
10701;SDS011;5402;50.004;8.246;2022-12-18T04:51:44;20.23;;;10.03;;
10701;SDS011;5402;50.004;8.246;2022-12-18T04:54:10;21.43;;;9.20;;
10701;SDS011;5402;50.004;8.246;2022-12-18T04:56:37;19.30;;;8.73;;
10701;SDS011;5402;50.004;8.246;2022-12-18T04:59:04;22.63;;;9.57;;
10701;SDS011;5402;50.004;8.246;2022-12-18T05:01:34;18.77;;;9.17;;
10701;SDS011;5402;50.004;8.246;2022-12-18T05:04:04;20.97;;;9.00;;
10701;SDS011;5402;50.004;8.246;2022-12-18T05:06:32;25.73;;;9.63;;
10701;SDS011;5402;50.004;8.246;2022-12-18T05:08:59;20.87;;;9.43;;
10701;SDS011;5402;50.004;8.246;2022-12-18T05:11:29;19.73;;;9.70;;
10701;SDS011;5402;50.004;8.246;2022-12-18T05:13:58;17.07;;;8.70;;
10701;SDS011;5402;50.004;8.246;2022-12-18T05:16:25;19.20;;;9.17;;
10701;SDS011;5402;50.004;8.246;2022-12-18T05:18:51;20.63;;;9.50;;
10701;SDS011;5402;50.004;8.246;2022-12-18T05:21:18;24.00;;;10.10;;
10701;SDS011;5402;50.004;8.246;2022-12-18T05:23:46;20.67;;;8.83;;
10701;SDS011;5402;50.004;8.246;2022-12-18T05:26:14;25.30;;;9.43;;
10701;SDS011;5402;50.004;8.246;2022-12-18T05:28:45;19.80;;;8.40;;
10701;SDS011;5402;50.004;8.246;2022-12-18T05:31:12;22.30;;;9.17;;
10701;SDS011;5402;50.004;8.246;2022-12-18T05:33:39;25.87;;;10.27;;
10701;SDS011;5402;50.004;8.246;2022-12-18T05:36:07;21.90;;;9.13;;
10701;SDS011;5402;50.004;8.246;2022-12-18T05:38:35;19.50;;;8.27;;
10701;SDS011;5402;50.004;8.246;2022-12-18T05:41:05;18.87;;;8.53;;
10701;SDS011;5402;50.004;8.246;2022-12-18T05:43:33;21.33;;;8.53;;
10701;SDS011;5402;50.004;8.246;2022-12-18T05:46:03;21.70;;;9.03;;
10701;SDS011;5402;50.004;8.246;2022-12-18T05:48:30;24.20;;;9.37;;
10701;SDS011;5402;50.004;8.246;2022-12-18T05:51:02;20.43;;;9.57;;
10701;SDS011;5402;50.004;8.246;2022-12-18T05:53:31;18.30;;;9.10;;
10701;SDS011;5402;50.004;8.246;2022-12-18T05:55:59;18.30;;;8.77;;
10701;SDS011;5402;50.004;8.246;2022-12-18T05:58:29;13.27;;;8.00;;
10701;SDS011;5402;50.004;8.246;2022-12-18T06:00:56;21.13;;;9.97;;
10701;SDS011;5402;50.004;8.246;2022-12-18T06:03:35;20.10;;;8.80;;
10701;SDS011;5402;50.004;8.246;2022-12-18T06:06:28;20.30;;;8.23;;
10701;SDS011;5402;50.004;8.246;2022-12-18T06:08:55;17.80;;;8.57;;
10701;SDS011;5402;50.004;8.246;2022-12-18T06:11:25;13.63;;;7.60;;
10701;SDS011;5402;50.004;8.246;2022-12-18T06:13:54;20.83;;;8.93;;
10701;SDS011;5402;50.004;8.246;2022-12-18T06:16:21;24.50;;;10.07;;
10701;SDS011;5402;50.004;8.246;2022-12-18T06:18:59;23.50;;;9.13;;
10701;SDS011;5402;50.004;8.246;2022-12-18T06:21:29;20.83;;;9.33;;
10701;SDS011;5402;50.004;8.246;2022-12-18T06:23:57;19.13;;;8.23;;
10701;SDS011;5402;50.004;8.246;2022-12-18T06:26:24;16.37;;;7.83;;
10701;SDS011;5402;50.004;8.246;2022-12-18T06:28:51;17.73;;;9.43;;
10701;SDS011;5402;50.004;8.246;2022-12-18T06:31:25;20.10;;;9.43;;
10701;SDS011;5402;50.004;8.246;2022-12-18T06:33:55;20.27;;;9.20;;
10701;SDS011;5402;50.004;8.246;2022-12-18T06:36:21;21.83;;;10.00;;
10701;SDS011;5402;50.004;8.246;2022-12-18T06:38:51;20.23;;;9.20;;
10701;SDS011;5402;50.004;8.246;2022-12-18T06:41:21;16.57;;;8.53;;
10701;SDS011;5402;50.004;8.246;2022-12-18T06:43:48;17.87;;;9.10;;
10701;SDS011;5402;50.004;8.246;2022-12-18T06:46:15;19.50;;;9.10;;
10701;SDS011;5402;50.004;8.246;2022-12-18T06:48:45;18.97;;;8.33;;
10701;SDS011;5402;50.004;8.246;2022-12-18T06:51:15;24.93;;;8.90;;
10701;SDS011;5402;50.004;8.246;2022-12-18T06:53:43;21.30;;;8.90;;
10701;SDS011;5402;50.004;8.246;2022-12-18T06:56:09;19.40;;;8.70;;
10701;SDS011;5402;50.004;8.246;2022-12-18T06:58:36;21.53;;;9.03;;
10701;SDS011;5402;50.004;8.246;2022-12-18T07:01:04;16.67;;;8.67;;
10701;SDS011;5402;50.004;8.246;2022-12-18T07:03:35;24.73;;;9.93;;
10701;SDS011;5402;50.004;8.246;2022-12-18T07:06:05;16.53;;;8.70;;
10701;SDS011;5402;50.004;8.246;2022-12-18T07:08:32;22.07;;;9.93;;
10701;SDS011;5402;50.004;8.246;2022-12-18T07:11:02;20.43;;;8.13;;
10701;SDS011;5402;50.004;8.246;2022-12-18T07:13:30;26.20;;;10.27;;
10701;SDS011;5402;50.004;8.246;2022-12-18T07:16:02;21.40;;;10.07;;
10701;SDS011;5402;50.004;8.246;2022-12-18T07:18:30;18.67;;;7.60;;
10701;SDS011;5402;50.004;8.246;2022-12-18T07:20:57;20.90;;;8.63;;
10701;SDS011;5402;50.004;8.246;2022-12-18T07:23:29;18.40;;;7.80;;
10701;SDS011;5402;50.004;8.246;2022-12-18T07:26:00;15.33;;;7.80;;
10701;SDS011;5402;50.004;8.246;2022-12-18T07:28:28;19.87;;;9.47;;
10701;SDS011;5402;50.004;8.246;2022-12-18T07:30:55;16.40;;;7.93;;
10701;SDS011;5402;50.004;8.246;2022-12-18T07:33:23;17.23;;;8.77;;
10701;SDS011;5402;50.004;8.246;2022-12-18T07:35:49;15.40;;;8.00;;
10701;SDS011;5402;50.004;8.246;2022-12-18T07:38:16;17.60;;;8.73;;
10701;SDS011;5402;50.004;8.246;2022-12-18T07:40:44;21.20;;;9.33;;
10701;SDS011;5402;50.004;8.246;2022-12-18T07:43:11;21.50;;;9.37;;
10701;SDS011;5402;50.004;8.246;2022-12-18T07:45:38;18.10;;;8.40;;
10701;SDS011;5402;50.004;8.246;2022-12-18T07:48:05;16.40;;;8.63;;
10701;SDS011;5402;50.004;8.246;2022-12-18T07:50:32;16.73;;;8.67;;
10701;SDS011;5402;50.004;8.246;2022-12-18T07:55:54;17.60;;;8.67;;
10701;SDS011;5402;50.004;8.246;2022-12-18T07:58:21;18.23;;;8.33;;
10701;SDS011;5402;50.004;8.246;2022-12-18T08:00:48;18.63;;;9.23;;
10701;SDS011;5402;50.004;8.246;2022-12-18T08:03:14;17.93;;;8.17;;
10701;SDS011;5402;50.004;8.246;2022-12-18T08:05:41;18.20;;;8.63;;
10701;SDS011;5402;50.004;8.246;2022-12-18T08:08:08;20.50;;;8.93;;
10701;SDS011;5402;50.004;8.246;2022-12-18T08:10:35;21.40;;;9.47;;
10701;SDS011;5402;50.004;8.246;2022-12-18T08:13:04;18.30;;;8.57;;
10701;SDS011;5402;50.004;8.246;2022-12-18T08:15:31;19.87;;;9.30;;
10701;SDS011;5402;50.004;8.246;2022-12-18T08:18:01;21.97;;;9.83;;
10701;SDS011;5402;50.004;8.246;2022-12-18T08:20:27;20.63;;;9.30;;
10701;SDS011;5402;50.004;8.246;2022-12-18T08:22:56;20.47;;;10.03;;
10701;SDS011;5402;50.004;8.246;2022-12-18T08:25:23;21.23;;;10.27;;
10701;SDS011;5402;50.004;8.246;2022-12-18T08:27:53;20.97;;;10.60;;
10701;SDS011;5402;50.004;8.246;2022-12-18T08:30:22;21.33;;;10.37;;
10701;SDS011;5402;50.004;8.246;2022-12-18T08:32:50;23.37;;;11.03;;
10701;SDS011;5402;50.004;8.246;2022-12-18T08:35:17;23.23;;;11.13;;
10701;SDS011;5402;50.004;8.246;2022-12-18T08:37:44;21.50;;;10.83;;
10701;SDS011;5402;50.004;8.246;2022-12-18T08:40:12;28.00;;;12.13;;
10701;SDS011;5402;50.004;8.246;2022-12-18T08:42:39;22.70;;;12.00;;
10701;SDS011;5402;50.004;8.246;2022-12-18T08:45:24;23.37;;;12.13;;
10701;SDS011;5402;50.004;8.246;2022-12-18T08:47:52;23.97;;;11.73;;
10701;SDS011;5402;50.004;8.246;2022-12-18T08:50:19;29.33;;;11.70;;
10701;SDS011;5402;50.004;8.246;2022-12-18T08:52:46;25.10;;;11.73;;
10701;SDS011;5402;50.004;8.246;2022-12-18T08:55:13;30.47;;;12.23;;
10701;SDS011;5402;50.004;8.246;2022-12-18T08:57:40;25.27;;;12.47;;
10701;SDS011;5402;50.004;8.246;2022-12-18T09:00:08;23.80;;;12.07;;
10701;SDS011;5402;50.004;8.246;2022-12-18T09:02:39;25.47;;;13.50;;
10701;SDS011;5402;50.004;8.246;2022-12-18T09:05:06;24.60;;;12.00;;
10701;SDS011;5402;50.004;8.246;2022-12-18T09:07:33;22.53;;;12.03;;
10701;SDS011;5402;50.004;8.246;2022-12-18T09:10:00;24.07;;;12.47;;
10701;SDS011;5402;50.004;8.246;2022-12-18T09:12:27;26.23;;;12.20;;
10701;SDS011;5402;50.004;8.246;2022-12-18T09:14:55;25.20;;;12.67;;
10701;SDS011;5402;50.004;8.246;2022-12-18T09:17:25;25.20;;;11.70;;
10701;SDS011;5402;50.004;8.246;2022-12-18T09:19:53;27.00;;;11.93;;
10701;SDS011;5402;50.004;8.246;2022-12-18T09:22:20;26.57;;;14.00;;
10701;SDS011;5402;50.004;8.246;2022-12-18T09:24:48;24.83;;;12.83;;
10701;SDS011;5402;50.004;8.246;2022-12-18T09:27:15;22.87;;;11.10;;
10701;SDS011;5402;50.004;8.246;2022-12-18T09:29:42;25.23;;;12.70;;
10701;SDS011;5402;50.004;8.246;2022-12-18T09:32:09;25.77;;;12.10;;
10701;SDS011;5402;50.004;8.246;2022-12-18T09:34:36;26.80;;;12.07;;
10701;SDS011;5402;50.004;8.246;2022-12-18T09:37:04;24.27;;;12.27;;
10701;SDS011;5402;50.004;8.246;2022-12-18T09:39:32;24.10;;;12.13;;
10701;SDS011;5402;50.004;8.246;2022-12-18T09:41:59;23.80;;;12.17;;
10701;SDS011;5402;50.004;8.246;2022-12-18T09:44:28;23.53;;;12.00;;
10701;SDS011;5402;50.004;8.246;2022-12-18T09:46:59;22.83;;;12.23;;
10701;SDS011;5402;50.004;8.246;2022-12-18T09:49:33;21.97;;;11.23;;
10701;SDS011;5402;50.004;8.246;2022-12-18T09:52:08;25.00;;;12.63;;
10701;SDS011;5402;50.004;8.246;2022-12-18T09:54:39;22.47;;;12.23;;
10701;SDS011;5402;50.004;8.246;2022-12-18T09:57:10;27.03;;;11.83;;
10701;SDS011;5402;50.004;8.246;2022-12-18T09:59:41;26.80;;;13.97;;
10701;SDS011;5402;50.004;8.246;2022-12-18T10:02:13;24.55;;;11.68;;
10701;SDS011;5402;50.004;8.246;2022-12-18T10:04:51;27.10;;;13.10;;
10701;SDS011;5402;50.004;8.246;2022-12-18T10:07:29;25.23;;;12.53;;
10701;SDS011;5402;50.004;8.246;2022-12-18T10:10:11;23.27;;;11.20;;
10701;SDS011;5402;50.004;8.246;2022-12-18T10:12:48;25.37;;;12.20;;
10701;SDS011;5402;50.004;8.246;2022-12-18T10:15:23;24.67;;;12.20;;
10701;SDS011;5402;50.004;8.246;2022-12-18T10:17:55;24.57;;;12.80;;
10701;SDS011;5402;50.004;8.246;2022-12-18T10:20:30;22.13;;;11.83;;
10701;SDS011;5402;50.004;8.246;2022-12-18T10:23:07;27.20;;;12.43;;
10701;SDS011;5402;50.004;8.246;2022-12-18T10:25:50;26.63;;;13.57;;
10701;SDS011;5402;50.004;8.246;2022-12-18T10:28:21;26.23;;;12.03;;
10701;SDS011;5402;50.004;8.246;2022-12-18T10:30:55;26.30;;;12.93;;
10701;SDS011;5402;50.004;8.246;2022-12-18T10:33:23;27.20;;;13.20;;
10701;SDS011;5402;50.004;8.246;2022-12-18T10:35:54;26.27;;;13.00;;
10701;SDS011;5402;50.004;8.246;2022-12-18T10:38:24;30.67;;;14.27;;
10701;SDS011;5402;50.004;8.246;2022-12-18T10:40:54;26.50;;;13.43;;
10701;SDS011;5402;50.004;8.246;2022-12-18T10:43:25;23.83;;;11.97;;
10701;SDS011;5402;50.004;8.246;2022-12-18T10:46:13;25.57;;;12.70;;
10701;SDS011;5402;50.004;8.246;2022-12-18T10:48:50;25.70;;;12.47;;
10701;SDS011;5402;50.004;8.246;2022-12-18T10:51:20;28.97;;;13.50;;
10701;SDS011;5402;50.004;8.246;2022-12-18T10:53:54;30.53;;;14.07;;
10701;SDS011;5402;50.004;8.246;2022-12-18T10:56:27;27.73;;;13.90;;
10701;SDS011;5402;50.004;8.246;2022-12-18T10:58:58;29.60;;;13.60;;
10701;SDS011;5402;50.004;8.246;2022-12-18T11:01:27;27.80;;;13.30;;
10701;SDS011;5402;50.004;8.246;2022-12-18T11:04:00;26.17;;;13.87;;
10701;SDS011;5402;50.004;8.246;2022-12-18T11:06:33;25.77;;;13.40;;
10701;SDS011;5402;50.004;8.246;2022-12-18T11:09:02;29.73;;;15.30;;
10701;SDS011;5402;50.004;8.246;2022-12-18T11:11:31;26.40;;;14.07;;
10701;SDS011;5402;50.004;8.246;2022-12-18T11:14:00;30.50;;;15.27;;
10701;SDS011;5402;50.004;8.246;2022-12-18T11:16:29;30.73;;;15.33;;
10701;SDS011;5402;50.004;8.246;2022-12-18T11:19:08;33.63;;;15.83;;
10701;SDS011;5402;50.004;8.246;2022-12-18T11:21:44;28.47;;;13.20;;
10701;SDS011;5402;50.004;8.246;2022-12-18T11:24:17;32.83;;;14.97;;
10701;SDS011;5402;50.004;8.246;2022-12-18T11:26:49;31.07;;;15.60;;
10701;SDS011;5402;50.004;8.246;2022-12-18T11:29:17;30.20;;;14.63;;
10701;SDS011;5402;50.004;8.246;2022-12-18T11:31:48;29.43;;;14.53;;
10701;SDS011;5402;50.004;8.246;2022-12-18T11:34:16;26.57;;;14.50;;
10701;SDS011;5402;50.004;8.246;2022-12-18T11:36:48;28.00;;;15.13;;
10701;SDS011;5402;50.004;8.246;2022-12-18T11:39:18;27.93;;;14.47;;
10701;SDS011;5402;50.004;8.246;2022-12-18T11:41:52;26.63;;;13.63;;
10701;SDS011;5402;50.004;8.246;2022-12-18T11:44:38;29.33;;;14.93;;
10701;SDS011;5402;50.004;8.246;2022-12-18T11:47:10;27.47;;;13.97;;
10701;SDS011;5402;50.004;8.246;2022-12-18T11:49:41;28.20;;;13.93;;
10701;SDS011;5402;50.004;8.246;2022-12-18T11:52:09;25.30;;;13.53;;
10701;SDS011;5402;50.004;8.246;2022-12-18T11:54:45;28.57;;;14.73;;
10701;SDS011;5402;50.004;8.246;2022-12-18T11:57:14;27.60;;;14.37;;
10701;SDS011;5402;50.004;8.246;2022-12-18T11:59:52;27.47;;;14.33;;
10701;SDS011;5402;50.004;8.246;2022-12-18T12:02:33;24.60;;;12.50;;
10701;SDS011;5402;50.004;8.246;2022-12-18T12:05:25;28.07;;;14.93;;
10701;SDS011;5402;50.004;8.246;2022-12-18T12:08:06;28.63;;;15.37;;
10701;SDS011;5402;50.004;8.246;2022-12-18T12:10:46;29.47;;;14.43;;
10701;SDS011;5402;50.004;8.246;2022-12-18T12:13:23;32.40;;;15.07;;
10701;SDS011;5402;50.004;8.246;2022-12-18T12:16:15;35.87;;;14.93;;
10701;SDS011;5402;50.004;8.246;2022-12-18T12:18:49;30.80;;;15.67;;
10701;SDS011;5402;50.004;8.246;2022-12-18T12:21:28;31.80;;;15.13;;
10701;SDS011;5402;50.004;8.246;2022-12-18T12:24:11;28.60;;;14.60;;
10701;SDS011;5402;50.004;8.246;2022-12-18T12:26:59;30.37;;;14.87;;
10701;SDS011;5402;50.004;8.246;2022-12-18T12:29:37;27.80;;;14.17;;
10701;SDS011;5402;50.004;8.246;2022-12-18T12:32:17;31.23;;;14.23;;
10701;SDS011;5402;50.004;8.246;2022-12-18T12:35:00;27.60;;;13.23;;
10701;SDS011;5402;50.004;8.246;2022-12-18T12:37:38;28.97;;;15.27;;
10701;SDS011;5402;50.004;8.246;2022-12-18T12:40:16;31.80;;;14.47;;
10701;SDS011;5402;50.004;8.246;2022-12-18T12:42:47;38.73;;;17.57;;
10701;SDS011;5402;50.004;8.246;2022-12-18T12:45:37;33.10;;;15.87;;
10701;SDS011;5402;50.004;8.246;2022-12-18T12:48:10;35.70;;;15.87;;
10701;SDS011;5402;50.004;8.246;2022-12-18T12:50:43;31.00;;;15.33;;
10701;SDS011;5402;50.004;8.246;2022-12-18T12:53:14;36.67;;;15.57;;
10701;SDS011;5402;50.004;8.246;2022-12-18T12:55:47;32.57;;;16.03;;
10701;SDS011;5402;50.004;8.246;2022-12-18T12:58:16;36.33;;;15.93;;
10701;SDS011;5402;50.004;8.246;2022-12-18T13:00:53;31.70;;;15.40;;
10701;SDS011;5402;50.004;8.246;2022-12-18T13:03:27;36.83;;;15.73;;
10701;SDS011;5402;50.004;8.246;2022-12-18T13:06:03;41.00;;;22.50;;
10701;SDS011;5402;50.004;8.246;2022-12-18T13:08:51;27.70;;;14.23;;
10701;SDS011;5402;50.004;8.246;2022-12-18T13:11:28;34.20;;;16.50;;
10701;SDS011;5402;50.004;8.246;2022-12-18T13:14:30;31.67;;;14.37;;
10701;SDS011;5402;50.004;8.246;2022-12-18T13:17:15;32.97;;;14.83;;
10701;SDS011;5402;50.004;8.246;2022-12-18T13:19:50;34.27;;;15.03;;
10701;SDS011;5402;50.004;8.246;2022-12-18T13:22:20;34.63;;;15.27;;
10701;SDS011;5402;50.004;8.246;2022-12-18T13:24:48;26.50;;;13.67;;
10701;SDS011;5402;50.004;8.246;2022-12-18T13:27:45;27.97;;;14.83;;
10701;SDS011;5402;50.004;8.246;2022-12-18T13:36:33;31.50;;;14.63;;
10701;SDS011;5402;50.004;8.246;2022-12-18T13:39:20;34.30;;;15.93;;
10701;SDS011;5402;50.004;8.246;2022-12-18T13:45:37;31.60;;;14.13;;
10701;SDS011;5402;50.004;8.246;2022-12-18T13:48:19;37.40;;;15.20;;
10701;SDS011;5402;50.004;8.246;2022-12-18T13:50:49;33.90;;;15.00;;
10701;SDS011;5402;50.004;8.246;2022-12-18T13:53:21;36.93;;;14.43;;
10701;SDS011;5402;50.004;8.246;2022-12-18T13:55:54;34.13;;;13.40;;
10701;SDS011;5402;50.004;8.246;2022-12-18T13:58:24;28.60;;;13.70;;
10701;SDS011;5402;50.004;8.246;2022-12-18T14:00:53;34.57;;;13.73;;
10701;SDS011;5402;50.004;8.246;2022-12-18T14:03:23;39.67;;;16.07;;
10701;SDS011;5402;50.004;8.246;2022-12-18T14:05:56;31.57;;;14.97;;
10701;SDS011;5402;50.004;8.246;2022-12-18T14:08:33;31.10;;;14.23;;
10701;SDS011;5402;50.004;8.246;2022-12-18T14:11:05;31.87;;;13.73;;
10701;SDS011;5402;50.004;8.246;2022-12-18T14:13:33;33.30;;;14.20;;
10701;SDS011;5402;50.004;8.246;2022-12-18T14:16:11;33.40;;;15.13;;
10701;SDS011;5402;50.004;8.246;2022-12-18T14:18:43;36.17;;;15.07;;
10701;SDS011;5402;50.004;8.246;2022-12-18T14:21:19;35.77;;;15.27;;
10701;SDS011;5402;50.004;8.246;2022-12-18T14:24:02;47.23;;;19.43;;
10701;SDS011;5402;50.004;8.246;2022-12-18T14:26:32;34.60;;;13.73;;
10701;SDS011;5402;50.004;8.246;2022-12-18T14:28:59;41.57;;;17.17;;
10701;SDS011;5402;50.004;8.246;2022-12-18T14:31:28;35.30;;;15.27;;
10701;SDS011;5402;50.004;8.246;2022-12-18T14:34:02;35.60;;;14.10;;
10701;SDS011;5402;50.004;8.246;2022-12-18T14:36:40;36.77;;;15.60;;
10701;SDS011;5402;50.004;8.246;2022-12-18T14:39:14;31.47;;;13.20;;
10701;SDS011;5402;50.004;8.246;2022-12-18T14:41:46;32.40;;;13.93;;
10701;SDS011;5402;50.004;8.246;2022-12-18T14:44:15;36.67;;;14.97;;
10701;SDS011;5402;50.004;8.246;2022-12-18T14:46:46;30.07;;;13.63;;
10701;SDS011;5402;50.004;8.246;2022-12-18T14:49:19;34.53;;;14.70;;
10701;SDS011;5402;50.004;8.246;2022-12-18T14:51:59;35.03;;;13.23;;
10701;SDS011;5402;50.004;8.246;2022-12-18T14:54:46;39.77;;;14.70;;
10701;SDS011;5402;50.004;8.246;2022-12-18T14:57:15;33.37;;;14.47;;
10701;SDS011;5402;50.004;8.246;2022-12-18T15:00:03;34.40;;;13.70;;
10701;SDS011;5402;50.004;8.246;2022-12-18T15:02:52;36.20;;;14.57;;
10701;SDS011;5402;50.004;8.246;2022-12-18T15:05:25;32.30;;;14.13;;
10701;SDS011;5402;50.004;8.246;2022-12-18T15:07:54;29.90;;;12.97;;
10701;SDS011;5402;50.004;8.246;2022-12-18T15:10:22;28.50;;;12.90;;
10701;SDS011;5402;50.004;8.246;2022-12-18T15:13:06;31.03;;;12.80;;
10701;SDS011;5402;50.004;8.246;2022-12-18T15:15:49;30.27;;;13.70;;
10701;SDS011;5402;50.004;8.246;2022-12-18T15:18:18;33.40;;;13.57;;